createdAt,value
2022-09-12T00:01:26.809Z,8.40
2022-09-12T00:05:01.792Z,7.20
2022-09-12T00:08:39.204Z,8.30
2022-09-12T00:12:15.668Z,6.50
2022-09-12T00:15:52.382Z,6.80
2022-09-12T00:19:47.905Z,9.60
2022-09-12T00:23:09.984Z,9.60
2022-09-12T00:26:47.006Z,8.00
2022-09-12T00:30:43.954Z,9.70
2022-09-12T00:34:05.561Z,8.30
2022-09-12T00:37:42.361Z,8.00
2022-09-12T00:41:24.258Z,7.40
2022-09-12T00:45:26.601Z,9.40
2022-09-12T00:49:01.751Z,8.70
2022-09-12T00:52:43.506Z,14.10
2022-09-12T00:56:07.376Z,5.70
2022-09-12T01:00:04.567Z,11.20
2022-09-12T01:03:46.816Z,8.80
2022-09-12T01:07:08.953Z,8.70
2022-09-12T01:10:45.774Z,8.60
2022-09-12T01:14:41.241Z,11.60
2022-09-12T01:18:41.584Z,9.60
2022-09-12T01:23:13.583Z,7.90
2022-09-12T01:27:14.637Z,12.00
2022-09-12T01:31:05.902Z,7.10
2022-09-12T01:34:46.876Z,8.10
2022-09-12T01:38:25.522Z,11.30
2022-09-12T01:42:00.281Z,5.70
2022-09-12T01:45:59.824Z,10.10
2022-09-12T01:49:36.849Z,12.30
2022-09-12T01:53:43.454Z,6.50
2022-09-12T01:57:12.990Z,8.40
2022-09-12T02:00:50.195Z,8.50
2022-09-12T02:04:22.830Z,8.60
2022-09-12T02:08:06.820Z,8.40
2022-09-12T02:11:36.618Z,6.70
2022-09-12T02:15:12.410Z,8.80
2022-09-12T02:18:50.769Z,8.30
2022-09-12T02:22:43.491Z,7.90
2022-09-12T02:26:30.033Z,7.20
2022-09-12T02:29:53.565Z,6.10
2022-09-12T02:33:46.280Z,6.00
2022-09-12T02:37:32.514Z,5.90
2022-09-12T02:41:18.076Z,7.90
2022-09-12T02:44:58.708Z,7.40
2022-09-12T02:48:42.890Z,5.60
2022-09-12T02:52:24.247Z,6.20
2022-09-12T02:55:46.043Z,5.40
2022-09-12T02:59:24.971Z,7.40
2022-09-12T03:03:27.016Z,7.70
2022-09-12T03:06:58.732Z,7.60
2022-09-12T03:11:02.820Z,8.70
2022-09-12T03:14:53.214Z,10.90
2022-09-12T03:18:29.729Z,7.00
2022-09-12T03:22:04.726Z,5.30
2022-09-12T03:25:58.437Z,6.70
2022-09-12T03:29:21.693Z,7.60
2022-09-12T03:33:18.957Z,8.20
2022-09-12T03:36:41.624Z,7.00
2022-09-12T03:40:17.934Z,8.10
2022-09-12T03:44:13.113Z,5.60
2022-09-12T03:47:54.499Z,8.90
2022-09-12T03:51:15.930Z,8.20
2022-09-12T03:54:52.707Z,7.10
2022-09-12T03:58:30.947Z,5.60
2022-09-12T04:02:25.232Z,6.60
2022-09-12T04:05:47.539Z,6.70
2022-09-12T04:09:23.931Z,8.40
2022-09-12T04:13:18.927Z,9.40
2022-09-12T04:17:00.610Z,7.40
2022-09-12T04:20:43.319Z,7.70
2022-09-12T04:24:05.145Z,7.90
2022-09-12T04:27:41.706Z,7.80
2022-09-12T04:31:20.766Z,6.00
2022-09-12T04:35:14.079Z,7.20
2022-09-12T04:38:36.234Z,7.60
2022-09-12T04:42:12.590Z,11.30
2022-09-12T04:46:11.446Z,10.60
2022-09-12T04:49:52.142Z,10.00
2022-09-12T04:53:14.014Z,10.30
2022-09-12T04:56:52.289Z,11.10
2022-09-12T05:00:46.446Z,9.90
2022-09-12T05:04:10.854Z,9.20
2022-09-12T05:07:45.083Z,6.20
2022-09-12T05:11:41.150Z,10.50
2022-09-12T05:15:10.173Z,10.60
2022-09-12T05:18:48.940Z,7.90
2022-09-12T05:22:42.495Z,14.10
2022-09-12T05:26:06.351Z,8.10
2022-09-12T05:29:58.451Z,10.60
2022-09-12T05:33:24.922Z,9.80
2022-09-12T05:37:16.616Z,7.00
2022-09-12T05:40:38.372Z,5.90
2022-09-12T05:44:15.552Z,10.50
2022-09-12T05:47:54.270Z,7.80
2022-09-12T05:51:32.967Z,8.20
2022-09-12T05:55:06.011Z,8.00
2022-09-12T05:58:44.777Z,7.40
2022-09-12T06:02:19.171Z,9.80
2022-09-12T06:06:18.050Z,9.70
2022-09-12T06:09:39.929Z,6.60
2022-09-12T06:13:16.648Z,11.60
2022-09-12T06:17:12.182Z,9.30
2022-09-12T06:20:37.025Z,10.30
2022-09-12T06:24:30.383Z,10.50
2022-09-12T06:28:10.688Z,7.90
2022-09-12T06:31:34.727Z,9.20
2022-09-12T06:35:28.636Z,6.30
2022-09-12T06:39:12.653Z,10.30
2022-09-12T06:42:34.621Z,8.50
2022-09-12T06:46:12.380Z,11.00
2022-09-12T06:49:48.304Z,6.40
2022-09-12T06:53:45.242Z,4.30
2022-09-12T06:57:08.418Z,3.90
2022-09-12T07:00:44.102Z,6.90
2022-09-12T07:04:20.975Z,5.80
2022-09-12T07:07:59.234Z,3.80
2022-09-12T07:11:36.670Z,4.40
2022-09-12T07:15:11.419Z,7.10
2022-09-12T07:18:52.480Z,4.00
2022-09-12T07:22:24.464Z,4.80
2022-09-12T07:26:01.950Z,4.60
2022-09-12T07:29:56.972Z,3.80
2022-09-12T07:33:39.404Z,5.20
2022-09-12T07:37:01.346Z,4.70
2022-09-12T07:40:37.830Z,4.20
2022-09-12T07:44:14.704Z,3.10
2022-09-12T07:47:54.355Z,2.70
2022-09-12T07:51:30.153Z,2.40
2022-09-12T07:55:06.182Z,4.10
2022-09-12T07:58:43.367Z,2.70
2022-09-12T08:02:38.612Z,3.30
2022-09-12T08:06:08.402Z,3.40
2022-09-12T08:09:37.872Z,4.10
2022-09-12T08:13:14.373Z,2.80
2022-09-12T08:17:09.632Z,7.50
2022-09-12T08:20:31.431Z,4.40
2022-09-12T08:24:08.908Z,3.20
2022-09-12T08:27:46.846Z,3.40
2022-09-12T08:31:25.258Z,2.80
2022-09-12T08:34:58.409Z,3.10
2022-09-12T08:38:37.124Z,3.10
2022-09-12T08:43:02.101Z,3.50
2022-09-12T08:46:34.741Z,2.50
2022-09-12T08:50:10.306Z,2.50
2022-09-12T08:53:57.749Z,2.20
2022-09-12T08:57:19.222Z,2.30
2022-09-12T09:01:23.981Z,2.50
2022-09-12T09:04:52.845Z,4.30
2022-09-12T09:09:01.433Z,2.40
2022-09-12T09:12:33.618Z,3.10
2022-09-12T09:16:17.358Z,3.10
2022-09-12T09:19:51.027Z,2.70
2022-09-12T09:23:28.383Z,1.70
2022-09-12T09:27:02.525Z,3.90
2022-09-12T09:30:49.747Z,5.20
2022-09-12T09:34:33.682Z,2.80
2022-09-12T09:38:27.296Z,4.70
2022-09-12T09:42:05.565Z,3.10
2022-09-12T09:45:29.745Z,6.20
2022-09-12T09:49:26.669Z,1.70
2022-09-12T09:53:47.092Z,5.00
2022-09-12T09:57:34.007Z,1.00
2022-09-12T10:01:06.263Z,2.00
2022-09-12T10:04:56.961Z,1.30
2022-09-12T10:08:38.603Z,1.80
2022-09-12T10:12:19.479Z,2.90
2022-09-12T10:16:04.831Z,1.80
2022-09-12T10:19:36.747Z,2.90
2022-09-12T10:23:29.480Z,4.40
2022-09-12T10:27:05.666Z,2.70
2022-09-12T10:30:29.639Z,3.50
2022-09-12T10:34:16.033Z,1.50
2022-09-12T10:37:52.333Z,3.80
2022-09-12T10:41:22.017Z,3.00
2022-09-12T10:44:57.122Z,3.30
2022-09-12T10:48:33.838Z,2.80
2022-09-12T10:52:17.949Z,4.60
2022-09-12T10:56:12.474Z,1.80
2022-09-12T10:59:41.216Z,2.60
2022-09-12T11:03:25.041Z,4.40
2022-09-12T11:07:02.188Z,2.30
2022-09-12T11:10:44.402Z,1.20
2022-09-12T11:14:44.317Z,3.40
2022-09-12T11:18:23.798Z,1.40
2022-09-12T11:21:57.778Z,1.50
2022-09-12T11:25:45.668Z,3.00
2022-09-12T11:29:26.497Z,3.30
2022-09-12T11:33:21.878Z,5.80
2022-09-12T11:37:17.828Z,2.00
2022-09-12T11:40:44.508Z,4.20
2022-09-12T11:44:42.193Z,3.80
2022-09-12T11:48:36.653Z,2.60
2022-09-12T11:52:23.158Z,3.50
2022-09-12T11:55:53.847Z,2.50
2022-09-12T11:59:59.356Z,2.30
2022-09-12T12:03:33.272Z,2.10
2022-09-12T12:07:06.092Z,1.50
2022-09-12T12:10:35.784Z,1.80
2022-09-12T12:14:42.086Z,1.60
2022-09-12T12:18:29.582Z,3.00
2022-09-12T12:21:52.345Z,1.90
2022-09-12T12:25:56.736Z,1.20
2022-09-12T12:29:21.820Z,1.60
2022-09-12T12:33:16.089Z,4.30
2022-09-12T12:36:41.066Z,2.20
2022-09-12T12:40:23.609Z,2.50
2022-09-12T12:44:44.688Z,2.50
2022-09-12T12:48:25.191Z,1.90
2022-09-12T12:52:01.589Z,2.50
2022-09-12T12:55:33.908Z,2.50
2022-09-12T12:59:04.904Z,2.10
2022-09-12T13:03:10.106Z,3.90
2022-09-12T13:06:37.998Z,2.40
2022-09-12T13:10:29.525Z,1.20
2022-09-12T13:14:46.963Z,1.70
2022-09-12T13:18:25.144Z,2.10
2022-09-12T13:22:09.570Z,2.10
2022-09-12T13:25:59.985Z,2.60
2022-09-12T13:29:40.810Z,2.90
2022-09-12T13:33:32.008Z,2.50
2022-09-12T13:37:04.839Z,1.80
2022-09-12T13:40:55.879Z,4.10
2022-09-12T13:44:45.067Z,2.00
2022-09-12T13:48:25.665Z,1.70
2022-09-12T13:52:00.212Z,2.30
2022-09-12T13:55:48.409Z,2.00
2022-09-12T13:59:12.869Z,1.70
2022-09-12T14:02:48.551Z,1.40
2022-09-12T14:06:25.105Z,1.90
2022-09-12T14:10:01.699Z,1.80
2022-09-12T14:13:57.232Z,2.00
2022-09-12T14:17:26.129Z,1.50
2022-09-12T14:21:33.521Z,3.30
2022-09-12T14:24:56.987Z,2.80
2022-09-12T14:28:33.751Z,3.50
2022-09-12T14:32:22.268Z,1.10
2022-09-12T14:36:07.195Z,1.30
2022-09-12T14:39:48.590Z,2.60
2022-09-12T14:43:30.748Z,3.00
2022-09-12T14:46:53.327Z,2.50
2022-09-12T14:50:51.476Z,2.60
2022-09-12T14:54:35.539Z,2.40
2022-09-12T14:58:19.149Z,3.60
2022-09-12T15:01:41.183Z,1.70
2022-09-12T15:05:21.391Z,1.30
2022-09-12T15:09:13.629Z,2.00
2022-09-12T15:13:04.867Z,3.20
2022-09-12T15:16:45.639Z,3.30
2022-09-12T15:20:26.690Z,4.70
2022-09-12T15:24:08.567Z,2.50
2022-09-12T15:27:53.067Z,1.70
2022-09-12T15:31:34.118Z,2.30
2022-09-12T15:34:56.773Z,2.90
2022-09-12T15:38:52.632Z,1.90
2022-09-12T15:42:16.117Z,2.50
2022-09-12T15:45:51.729Z,1.70
2022-09-12T15:49:28.352Z,3.70
2022-09-12T15:53:05.036Z,4.30
2022-09-12T15:56:41.592Z,4.10
2022-09-12T16:00:19.606Z,2.70
2022-09-12T16:04:23.044Z,2.40
2022-09-12T16:07:45.093Z,3.30
2022-09-12T16:11:40.719Z,3.50
2022-09-12T16:15:24.263Z,5.00
2022-09-12T16:18:47.115Z,4.70
2022-09-12T16:22:22.960Z,4.40
2022-09-12T16:26:18.682Z,4.70
2022-09-12T16:29:40.564Z,2.90
2022-09-12T16:33:37.701Z,3.50
2022-09-12T16:36:59.509Z,3.30
2022-09-12T16:41:02.629Z,3.20
2022-09-12T16:44:43.404Z,5.10
2022-09-12T16:48:24.429Z,4.40
2022-09-12T16:52:05.641Z,4.50
2022-09-12T16:55:31.403Z,5.30
2022-09-12T16:59:05.428Z,14.50
2022-09-12T17:03:00.103Z,36.60
2022-09-12T17:06:42.020Z,36.00
2022-09-12T17:10:04.257Z,87.70
2022-09-12T17:14:03.397Z,80.60
2022-09-12T17:17:25.132Z,84.60
2022-09-12T17:21:01.674Z,54.10
2022-09-12T17:24:39.008Z,34.00
2022-09-12T17:28:15.764Z,18.80
2022-09-12T17:31:52.243Z,17.80
2022-09-12T17:35:29.212Z,15.20
2022-09-12T17:39:05.775Z,17.10
2022-09-12T17:43:01.974Z,11.00
2022-09-12T17:46:26.787Z,9.90
2022-09-12T17:50:27.356Z,9.10
2022-09-12T17:53:43.858Z,8.10
2022-09-12T17:57:39.714Z,8.70
2022-09-12T18:01:30.822Z,8.20
2022-09-12T18:05:12.556Z,7.90
2022-09-12T18:08:34.743Z,7.60
2022-09-12T18:12:11.542Z,6.70
2022-09-12T18:15:48.228Z,4.60
2022-09-12T18:19:25.216Z,5.20
2022-09-12T18:23:01.753Z,6.10
2022-09-12T18:26:39.013Z,4.60
2022-09-12T18:30:34.006Z,4.20
2022-09-12T18:34:18.020Z,7.30
2022-09-12T18:37:58.258Z,4.90
2022-09-12T18:41:23.021Z,4.20
2022-09-12T18:44:56.930Z,4.50
2022-09-12T18:48:55.005Z,4.90
2022-09-12T18:52:19.002Z,4.60
2022-09-12T18:56:01.337Z,5.10
2022-09-12T18:59:30.481Z,5.60
2022-09-12T19:03:26.319Z,21.50
2022-09-12T19:06:48.686Z,7.60
2022-09-12T19:10:25.839Z,6.50
2022-09-12T19:14:02.381Z,10.90
2022-09-12T19:17:38.728Z,10.30
2022-09-12T19:21:18.100Z,7.40
2022-09-12T19:25:13.117Z,11.50
2022-09-12T19:28:54.877Z,9.40
2022-09-12T19:32:16.768Z,9.90
2022-09-12T19:35:53.924Z,11.30
2022-09-12T19:39:49.373Z,12.40
2022-09-12T19:43:12.118Z,10.80
2022-09-12T19:46:48.337Z,10.10
2022-09-12T19:50:25.422Z,35.20
2022-09-12T19:54:20.697Z,19.40
2022-09-12T19:57:43.088Z,12.00
2022-09-12T20:01:30.007Z,17.90
2022-09-12T20:04:56.252Z,11.30
2022-09-12T20:08:34.000Z,10.30
2022-09-12T20:12:11.050Z,6.90
2022-09-12T20:15:46.312Z,12.60
2022-09-12T20:19:42.022Z,12.60
2022-09-12T20:23:24.823Z,10.40
2022-09-12T20:27:05.730Z,10.30
2022-09-12T20:30:46.930Z,7.50
2022-09-12T20:34:27.785Z,11.40
2022-09-12T20:38:08.581Z,7.70
2022-09-12T20:41:49.256Z,7.80
2022-09-12T20:45:29.722Z,9.10
2022-09-12T20:49:10.641Z,8.60
2022-09-12T20:52:32.615Z,8.90
2022-09-12T20:56:09.350Z,7.00
2022-09-12T20:59:46.237Z,8.90
2022-09-12T21:03:23.330Z,6.50
2022-09-12T21:06:59.828Z,7.40
2022-09-12T21:10:36.297Z,8.40
2022-09-12T21:14:13.367Z,9.10
2022-09-12T21:17:50.292Z,10.20
2022-09-12T21:21:27.074Z,9.20
2022-09-12T21:25:03.729Z,7.20
2022-09-12T21:28:40.406Z,14.00
2022-09-12T21:32:17.722Z,14.90
2022-09-12T21:35:54.173Z,12.70
2022-09-12T21:39:30.468Z,11.30
2022-09-12T21:43:12.363Z,10.00
2022-09-12T21:46:44.151Z,7.60
2022-09-12T21:50:21.273Z,9.50
2022-09-12T21:54:16.641Z,10.50
2022-09-12T21:57:38.901Z,8.40
2022-09-12T22:01:15.251Z,8.30
2022-09-12T22:04:52.234Z,10.00
2022-09-12T22:08:47.880Z,7.30
2022-09-12T22:12:09.457Z,11.20
2022-09-12T22:15:50.861Z,9.40
2022-09-12T22:19:23.563Z,9.40
2022-09-12T22:23:22.414Z,9.50
2022-09-12T22:26:46.605Z,8.90
2022-09-12T22:30:23.581Z,10.00
2022-09-12T22:34:00.172Z,7.40
2022-09-12T22:37:36.999Z,6.60
2022-09-12T22:41:14.323Z,9.20
2022-09-12T22:44:50.531Z,7.40
2022-09-12T22:48:27.803Z,9.60
2022-09-12T22:52:04.327Z,8.60
2022-09-12T22:56:00.567Z,13.10
2022-09-12T22:59:22.463Z,8.90
2022-09-12T23:03:01.980Z,11.40
2022-09-12T23:06:37.142Z,11.20
2022-09-12T23:10:35.815Z,9.10
2022-09-12T23:14:16.560Z,11.40
2022-09-12T23:17:59.239Z,9.00
2022-09-12T23:21:40.367Z,8.80
2022-09-12T23:25:03.370Z,8.40
2022-09-12T23:29:00.478Z,10.70
2022-09-12T23:32:41.682Z,9.20
2022-09-12T23:36:11.408Z,9.30
2022-09-12T23:39:40.305Z,13.80
2022-09-12T23:43:17.497Z,9.80
2022-09-12T23:46:54.197Z,8.40
2022-09-12T23:50:30.414Z,7.40
2022-09-12T23:54:26.497Z,8.80
2022-09-12T23:58:08.301Z,13.40
